Terminal Aerodrome Forecast
Issued by NWS

Home | Current Version | Previous Version | Text Only | Print | Product List | Glossary On
Versions: 1 2 3 4 5 6 7 8 9 10 11 12 13 14 15 16 17 18 19 20 21 22 23 24 25 26 27
000
FTUS43 KDLH 240705 AAA
TAFHYR
TAF AMD
KHYR 240705Z 2407/2506 13003KT P6SM OVC028
     FM240800 12006KT P6SM VCSH SCT007 OVC015
     FM241400 14010KT P6SM OVC010
     FM241900 17009G17KT P6SM BKN022 BKN035
     FM250000 19010G18KT P6SM VCTS BKN035CB
     FM250300 26009G15KT P6SM SCT050=

USA.gov is the U.S. government's official web portal to all federal, state and local government web resources and services.